sensor_id;sensor_type;location;lat;lon;timestamp;pressure;altitude;pressure_sealevel;temperature;humidity
21401;BME280;18038;50.166;18.908;2023-04-09T00:01:10;98609.38;;;3.79;82.24
21401;BME280;18038;50.166;18.908;2023-04-09T00:04:19;98606.88;;;3.78;81.59
21401;BME280;18038;50.166;18.908;2023-04-09T00:07:26;98602.03;;;3.83;81.47
21401;BME280;18038;50.166;18.908;2023-04-09T00:10:33;98602.84;;;3.83;81.04
21401;BME280;18038;50.166;18.908;2023-04-09T00:13:39;98604.28;;;3.87;81.22
21401;BME280;18038;50.166;18.908;2023-04-09T00:16:46;98599.25;;;3.94;80.72
21401;BME280;18038;50.166;18.908;2023-04-09T00:19:54;98601.75;;;3.86;80.60
21401;BME280;18038;50.166;18.908;2023-04-09T00:23:01;98603.13;;;3.90;80.84
21401;BME280;18038;50.166;18.908;2023-04-09T00:26:08;98596.72;;;3.92;80.17
21401;BME280;18038;50.166;18.908;2023-04-09T00:29:15;98603.81;;;3.92;80.59
21401;BME280;18038;50.166;18.908;2023-04-09T00:32:21;98598.13;;;3.97;80.37
21401;BME280;18038;50.166;18.908;2023-04-09T00:35:30;98609.28;;;3.90;79.87
21401;BME280;18038;50.166;18.908;2023-04-09T00:38:36;98610.09;;;3.91;80.27
21401;BME280;18038;50.166;18.908;2023-04-09T00:41:43;98606.91;;;3.87;80.36
21401;BME280;18038;50.166;18.908;2023-04-09T00:44:49;98611.63;;;3.84;80.56
21401;BME280;18038;50.166;18.908;2023-04-09T00:47:58;98617.31;;;3.79;80.57
21401;BME280;18038;50.166;18.908;2023-04-09T00:51:07;98619.78;;;3.71;80.93
21401;BME280;18038;50.166;18.908;2023-04-09T00:54:14;98617.59;;;3.66;81.29
21401;BME280;18038;50.166;18.908;2023-04-09T00:57:23;98618.00;;;3.62;81.41
21401;BME280;18038;50.166;18.908;2023-04-09T01:00:31;98614.22;;;3.55;81.61
21401;BME280;18038;50.166;18.908;2023-04-09T01:03:37;98619.06;;;3.49;81.37
21401;BME280;18038;50.166;18.908;2023-04-09T01:06:50;98625.72;;;3.44;81.85
21401;BME280;18038;50.166;18.908;2023-04-09T01:10:11;98625.28;;;3.39;81.89
21401;BME280;18038;50.166;18.908;2023-04-09T01:13:33;98623.75;;;3.36;81.82
21401;BME280;18038;50.166;18.908;2023-04-09T01:16:47;98624.47;;;3.38;82.07
21401;BME280;18038;50.166;18.908;2023-04-09T01:20:04;98609.59;;;3.37;81.77
21401;BME280;18038;50.166;18.908;2023-04-09T01:23:31;98625.88;;;3.52;81.47
21401;BME280;18038;50.166;18.908;2023-04-09T01:26:58;98631.47;;;3.59;80.83
21401;BME280;18038;50.166;18.908;2023-04-09T01:30:26;98626.31;;;3.57;80.39
21401;BME280;18038;50.166;18.908;2023-04-09T01:33:37;98630.34;;;3.52;81.12
21401;BME280;18038;50.166;18.908;2023-04-09T01:36:51;98621.56;;;3.51;80.99
21401;BME280;18038;50.166;18.908;2023-04-09T01:40:02;98622.84;;;3.57;80.73
21401;BME280;18038;50.166;18.908;2023-04-09T01:43:12;98620.19;;;3.57;80.67
21401;BME280;18038;50.166;18.908;2023-04-09T01:46:24;98621.84;;;3.58;80.82
21401;BME280;18038;50.166;18.908;2023-04-09T01:49:31;98622.28;;;3.63;80.37
21401;BME280;18038;50.166;18.908;2023-04-09T01:52:38;98622.00;;;3.66;80.19
21401;BME280;18038;50.166;18.908;2023-04-09T01:55:51;98621.75;;;3.69;80.37
21401;BME280;18038;50.166;18.908;2023-04-09T01:58:57;98619.13;;;3.69;79.40
21401;BME280;18038;50.166;18.908;2023-04-09T02:02:11;98627.84;;;3.60;80.27
21401;BME280;18038;50.166;18.908;2023-04-09T02:05:24;98620.31;;;3.55;80.06
21401;BME280;18038;50.166;18.908;2023-04-09T02:08:43;98623.25;;;3.52;80.61
21401;BME280;18038;50.166;18.908;2023-04-09T02:11:53;98630.47;;;3.50;80.54
21401;BME280;18038;50.166;18.908;2023-04-09T02:15:05;98602.75;;;3.25;80.57
21401;BME280;18038;50.166;18.908;2023-04-09T02:18:27;98628.09;;;3.37;81.15
21401;BME280;18038;50.166;18.908;2023-04-09T02:21:35;98624.72;;;3.35;80.93
21401;BME280;18038;50.166;18.908;2023-04-09T02:24:41;98624.84;;;3.34;81.40
21401;BME280;18038;50.166;18.908;2023-04-09T02:27:48;98622.81;;;3.37;81.31
21401;BME280;18038;50.166;18.908;2023-04-09T02:31:02;98609.59;;;3.47;80.76
21401;BME280;18038;50.166;18.908;2023-04-09T02:34:14;98609.59;;;3.47;80.19
21401;BME280;18038;50.166;18.908;2023-04-09T02:37:23;98615.88;;;3.46;80.78
21401;BME280;18038;50.166;18.908;2023-04-09T02:40:30;98615.03;;;3.45;80.35
21401;BME280;18038;50.166;18.908;2023-04-09T02:43:36;98610.84;;;3.43;80.30
21401;BME280;18038;50.166;18.908;2023-04-09T02:46:44;98620.84;;;3.39;80.60
21401;BME280;18038;50.166;18.908;2023-04-09T02:49:54;98624.47;;;3.38;80.58
21401;BME280;18038;50.166;18.908;2023-04-09T02:53:04;98623.72;;;3.26;80.72
21401;BME280;18038;50.166;18.908;2023-04-09T02:56:10;98625.53;;;3.26;81.12
21401;BME280;18038;50.166;18.908;2023-04-09T02:59:17;98627.31;;;3.25;80.65
21401;BME280;18038;50.166;18.908;2023-04-09T03:02:23;98624.84;;;3.24;80.87
21401;BME280;18038;50.166;18.908;2023-04-09T03:05:33;98627.72;;;3.21;81.07
21401;BME280;18038;50.166;18.908;2023-04-09T03:08:45;98623.03;;;3.24;80.95
21401;BME280;18038;50.166;18.908;2023-04-09T03:11:53;98628.31;;;3.24;81.04
21401;BME280;18038;50.166;18.908;2023-04-09T03:14:58;98629.44;;;3.32;80.93
21401;BME280;18038;50.166;18.908;2023-04-09T03:18:07;98631.22;;;3.31;80.67
21401;BME280;18038;50.166;18.908;2023-04-09T03:21:15;98635.81;;;3.29;81.00
21401;BME280;18038;50.166;18.908;2023-04-09T03:24:25;98637.22;;;3.33;81.00
21401;BME280;18038;50.166;18.908;2023-04-09T03:27:35;98628.31;;;3.34;81.50
21401;BME280;18038;50.166;18.908;2023-04-09T03:30:42;98632.81;;;3.43;80.83
21401;BME280;18038;50.166;18.908;2023-04-09T03:33:49;98626.44;;;3.46;80.40
21401;BME280;18038;50.166;18.908;2023-04-09T03:36:58;98631.13;;;3.42;80.00
21401;BME280;18038;50.166;18.908;2023-04-09T03:40:07;98625.28;;;3.39;80.00
21401;BME280;18038;50.166;18.908;2023-04-09T03:43:17;98623.91;;;3.35;80.29
21401;BME280;18038;50.166;18.908;2023-04-09T03:46:26;98625.25;;;3.29;80.49
21401;BME280;18038;50.166;18.908;2023-04-09T03:49:35;98616.91;;;3.24;80.90
21401;BME280;18038;50.166;18.908;2023-04-09T03:52:52;98625.97;;;3.31;81.17
21401;BME280;18038;50.166;18.908;2023-04-09T03:55:59;98623.59;;;3.28;80.70
21401;BME280;18038;50.166;18.908;2023-04-09T03:59:06;98624.41;;;3.29;81.03
21401;BME280;18038;50.166;18.908;2023-04-09T04:02:16;98621.94;;;3.37;80.51
21401;BME280;18038;50.166;18.908;2023-04-09T04:05:33;98624.03;;;3.33;80.19
21401;BME280;18038;50.166;18.908;2023-04-09T04:08:46;98629.84;;;3.27;80.54
21401;BME280;18038;50.166;18.908;2023-04-09T04:11:55;98639.16;;;3.31;80.57
21401;BME280;18038;50.166;18.908;2023-04-09T04:15:26;98636.25;;;3.34;80.70
21401;BME280;18038;50.166;18.908;2023-04-09T04:18:37;98625.16;;;3.40;80.29
21401;BME280;18038;50.166;18.908;2023-04-09T04:21:44;98616.66;;;3.37;80.39
21401;BME280;18038;50.166;18.908;2023-04-09T04:24:53;98625.69;;;3.34;79.75
21401;BME280;18038;50.166;18.908;2023-04-09T04:28:01;98635.28;;;3.35;79.85
21401;BME280;18038;50.166;18.908;2023-04-09T04:31:13;98644.31;;;3.33;80.12
21401;BME280;18038;50.166;18.908;2023-04-09T04:34:21;98641.97;;;3.39;80.31
21401;BME280;18038;50.166;18.908;2023-04-09T04:37:36;98640.34;;;3.48;79.75
21401;BME280;18038;50.166;18.908;2023-04-09T04:40:45;98640.63;;;3.55;79.60
21401;BME280;18038;50.166;18.908;2023-04-09T04:43:52;98656.50;;;3.64;79.32
21401;BME280;18038;50.166;18.908;2023-04-09T04:47:00;98647.06;;;3.72;79.33
21401;BME280;18038;50.166;18.908;2023-04-09T04:50:08;98659.03;;;3.76;78.87
21401;BME280;18038;50.166;18.908;2023-04-09T04:53:28;98654.31;;;3.89;78.32
21401;BME280;18038;50.166;18.908;2023-04-09T04:56:43;98647.50;;;3.86;78.48
21401;BME280;18038;50.166;18.908;2023-04-09T05:00:06;98642.66;;;3.91;78.26
21401;BME280;18038;50.166;18.908;2023-04-09T05:03:15;98642.94;;;3.98;77.83
21401;BME280;18038;50.166;18.908;2023-04-09T05:06:45;98643.22;;;4.05;77.79
21401;BME280;18038;50.166;18.908;2023-04-09T05:09:55;98644.31;;;4.22;77.23
21401;BME280;18038;50.166;18.908;2023-04-09T05:13:16;98649.63;;;4.31;76.97
21401;BME280;18038;50.166;18.908;2023-04-09T05:16:22;98653.50;;;4.37;75.72
21401;BME280;18038;50.166;18.908;2023-04-09T05:19:37;98658.50;;;3.91;77.24
21401;BME280;18038;50.166;18.908;2023-04-09T05:22:45;98663.25;;;3.47;79.32
21401;BME280;18038;50.166;18.908;2023-04-09T05:25:52;98659.44;;;3.31;81.11
21401;BME280;18038;50.166;18.908;2023-04-09T05:29:10;98661.00;;;3.33;81.42
21401;BME280;18038;50.166;18.908;2023-04-09T05:32:17;98661.22;;;3.20;81.55
21401;BME280;18038;50.166;18.908;2023-04-09T05:35:24;98666.16;;;3.35;81.25
21401;BME280;18038;50.166;18.908;2023-04-09T05:38:31;98663.41;;;3.46;80.43
21401;BME280;18038;50.166;18.908;2023-04-09T05:41:38;98670.31;;;3.37;80.84
21401;BME280;18038;50.166;18.908;2023-04-09T05:45:02;98672.25;;;3.35;81.08
21401;BME280;18038;50.166;18.908;2023-04-09T05:48:13;98669.50;;;3.46;80.71
21401;BME280;18038;50.166;18.908;2023-04-09T05:51:21;98673.03;;;3.57;80.42
21401;BME280;18038;50.166;18.908;2023-04-09T05:54:32;98667.91;;;3.65;79.66
21401;BME280;18038;50.166;18.908;2023-04-09T05:57:42;98676.91;;;3.53;80.28
21401;BME280;18038;50.166;18.908;2023-04-09T06:00:51;98679.59;;;3.32;80.81
21401;BME280;18038;50.166;18.908;2023-04-09T06:03:58;98680.19;;;3.35;81.22
21401;BME280;18038;50.166;18.908;2023-04-09T06:07:05;98679.19;;;3.67;80.76
21401;BME280;18038;50.166;18.908;2023-04-09T06:10:12;98688.00;;;3.97;79.78
21401;BME280;18038;50.166;18.908;2023-04-09T06:13:18;98685.66;;;4.13;78.84
21401;BME280;18038;50.166;18.908;2023-04-09T06:16:28;98688.47;;;4.31;78.43
21401;BME280;18038;50.166;18.908;2023-04-09T06:19:36;98677.03;;;4.21;77.79
21401;BME280;18038;50.166;18.908;2023-04-09T06:22:43;98689.69;;;4.27;78.36
21401;BME280;18038;50.166;18.908;2023-04-09T06:25:49;98694.03;;;4.47;77.17
21401;BME280;18038;50.166;18.908;2023-04-09T06:28:56;98700.28;;;4.75;76.61
21401;BME280;18038;50.166;18.908;2023-04-09T06:32:05;98699.53;;;4.93;75.27
21401;BME280;18038;50.166;18.908;2023-04-09T06:35:12;98695.47;;;5.08;74.23
21401;BME280;18038;50.166;18.908;2023-04-09T06:38:18;98701.69;;;5.27;74.04
21401;BME280;18038;50.166;18.908;2023-04-09T06:41:25;98703.44;;;5.45;73.21
21401;BME280;18038;50.166;18.908;2023-04-09T06:44:32;98700.88;;;5.63;72.80
21401;BME280;18038;50.166;18.908;2023-04-09T06:47:42;98707.81;;;5.74;71.90
21401;BME280;18038;50.166;18.908;2023-04-09T06:50:49;98703.72;;;5.80;71.60
21401;BME280;18038;50.166;18.908;2023-04-09T06:53:55;98711.09;;;5.86;71.28
21401;BME280;18038;50.166;18.908;2023-04-09T06:57:02;98700.19;;;5.89;70.97
21401;BME280;18038;50.166;18.908;2023-04-09T07:00:10;98705.97;;;6.20;69.81
21401;BME280;18038;50.166;18.908;2023-04-09T07:03:20;98707.00;;;6.37;69.00
21401;BME280;18038;50.166;18.908;2023-04-09T07:06:28;98695.69;;;6.35;68.41
21401;BME280;18038;50.166;18.908;2023-04-09T07:09:34;98710.56;;;6.64;68.09
21401;BME280;18038;50.166;18.908;2023-04-09T07:12:41;98709.94;;;6.70;66.92
21401;BME280;18038;50.166;18.908;2023-04-09T07:15:47;98703.41;;;6.82;67.47
21401;BME280;18038;50.166;18.908;2023-04-09T07:18:57;98704.03;;;6.40;68.28
21401;BME280;18038;50.166;18.908;2023-04-09T07:22:03;98707.91;;;6.46;69.29
21401;BME280;18038;50.166;18.908;2023-04-09T07:25:09;98713.25;;;6.36;69.18
21401;BME280;18038;50.166;18.908;2023-04-09T07:28:16;98714.03;;;6.28;68.98
21401;BME280;18038;50.166;18.908;2023-04-09T07:31:23;98710.84;;;6.25;69.59
21401;BME280;18038;50.166;18.908;2023-04-09T07:34:31;98719.25;;;6.20;70.57
21401;BME280;18038;50.166;18.908;2023-04-09T07:37:40;98713.06;;;6.29;69.99
21401;BME280;18038;50.166;18.908;2023-04-09T07:40:46;98715.78;;;6.38;69.18
21401;BME280;18038;50.166;18.908;2023-04-09T07:43:53;98721.00;;;6.29;69.12
21401;BME280;18038;50.166;18.908;2023-04-09T07:46:59;98718.41;;;6.20;70.64
21401;BME280;18038;50.166;18.908;2023-04-09T07:50:09;98707.50;;;6.41;71.14
21401;BME280;18038;50.166;18.908;2023-04-09T07:53:16;98714.19;;;6.45;70.22
21401;BME280;18038;50.166;18.908;2023-04-09T07:56:23;98715.31;;;6.24;70.29
21401;BME280;18038;50.166;18.908;2023-04-09T07:59:29;98717.25;;;6.04;70.82
21401;BME280;18038;50.166;18.908;2023-04-09T08:02:36;98717.13;;;5.78;71.99
21401;BME280;18038;50.166;18.908;2023-04-09T08:05:46;98719.16;;;5.94;71.99
21401;BME280;18038;50.166;18.908;2023-04-09T08:08:53;98723.06;;;5.90;72.47
21401;BME280;18038;50.166;18.908;2023-04-09T08:11:59;98725.91;;;5.79;72.08
21401;BME280;18038;50.166;18.908;2023-04-09T08:15:06;98718.94;;;5.78;72.61
21401;BME280;18038;50.166;18.908;2023-04-09T08:18:13;98722.38;;;5.60;72.67
21401;BME280;18038;50.166;18.908;2023-04-09T08:21:23;98734.06;;;5.67;73.92
21401;BME280;18038;50.166;18.908;2023-04-09T08:24:29;98733.44;;;5.83;72.54
21401;BME280;18038;50.166;18.908;2023-04-09T08:27:36;98733.44;;;5.83;72.67
21401;BME280;18038;50.166;18.908;2023-04-09T08:30:43;98733.19;;;5.77;73.93
21401;BME280;18038;50.166;18.908;2023-04-09T08:33:50;98736.59;;;6.15;73.24
21401;BME280;18038;50.166;18.908;2023-04-09T08:36:58;98738.38;;;6.42;72.34
21401;BME280;18038;50.166;18.908;2023-04-09T08:40:07;98732.34;;;6.49;72.61
21401;BME280;18038;50.166;18.908;2023-04-09T08:43:15;98739.69;;;6.73;71.40
21401;BME280;18038;50.166;18.908;2023-04-09T08:46:27;98736.75;;;7.03;71.05
21401;BME280;18038;50.166;18.908;2023-04-09T08:49:33;98739.16;;;7.14;70.19
21401;BME280;18038;50.166;18.908;2023-04-09T08:52:45;98739.72;;;7.26;70.07
21401;BME280;18038;50.166;18.908;2023-04-09T08:55:52;98736.97;;;7.35;69.74
21401;BME280;18038;50.166;18.908;2023-04-09T08:58:59;98739.59;;;7.53;68.34
21401;BME280;18038;50.166;18.908;2023-04-09T09:02:06;98735.13;;;7.54;68.28
21401;BME280;18038;50.166;18.908;2023-04-09T09:05:15;98742.28;;;7.35;68.27
21401;BME280;18038;50.166;18.908;2023-04-09T09:08:25;98737.09;;;7.34;68.90
21401;BME280;18038;50.166;18.908;2023-04-09T09:11:34;98735.88;;;7.20;69.40
21401;BME280;18038;50.166;18.908;2023-04-09T09:14:41;98735.22;;;7.44;69.08
21401;BME280;18038;50.166;18.908;2023-04-09T09:17:56;98731.56;;;7.71;68.19
21401;BME280;18038;50.166;18.908;2023-04-09T09:21:09;98733.97;;;7.56;68.49
21401;BME280;18038;50.166;18.908;2023-04-09T09:24:19;98727.56;;;7.75;68.82
21401;BME280;18038;50.166;18.908;2023-04-09T09:27:33;98734.34;;;8.12;67.04
21401;BME280;18038;50.166;18.908;2023-04-09T09:30:43;98745.63;;;7.98;67.51
21401;BME280;18038;50.166;18.908;2023-04-09T09:33:51;98737.53;;;7.73;67.29
21401;BME280;18038;50.166;18.908;2023-04-09T09:36:59;98749.41;;;7.53;68.44
21401;BME280;18038;50.166;18.908;2023-04-09T09:40:09;98740.09;;;7.57;68.67
21401;BME280;18038;50.166;18.908;2023-04-09T09:43:39;98743.44;;;7.33;68.74
21401;BME280;18038;50.166;18.908;2023-04-09T09:46:49;98742.69;;;7.75;68.37
21401;BME280;18038;50.166;18.908;2023-04-09T09:49:56;98746.22;;;7.83;67.25
21401;BME280;18038;50.166;18.908;2023-04-09T09:53:05;98740.50;;;7.70;68.48
21401;BME280;18038;50.166;18.908;2023-04-09T09:56:20;98724.06;;;7.66;68.23
21401;BME280;18038;50.166;18.908;2023-04-09T09:59:40;98740.22;;;7.81;67.11
21401;BME280;18038;50.166;18.908;2023-04-09T10:02:56;98737.59;;;7.89;66.44
21401;BME280;18038;50.166;18.908;2023-04-09T10:06:13;98737.50;;;8.07;66.57
21401;BME280;18038;50.166;18.908;2023-04-09T10:09:23;98733.94;;;8.49;65.45
21401;BME280;18038;50.166;18.908;2023-04-09T10:12:35;98736.28;;;8.69;64.77
21401;BME280;18038;50.166;18.908;2023-04-09T10:15:50;98729.63;;;8.65;63.60
21401;BME280;18038;50.166;18.908;2023-04-09T10:18:58;98740.63;;;8.62;63.43
21401;BME280;18038;50.166;18.908;2023-04-09T10:22:11;98731.78;;;8.53;62.96
21401;BME280;18038;50.166;18.908;2023-04-09T10:25:21;98736.47;;;8.75;63.74
21401;BME280;18038;50.166;18.908;2023-04-09T10:28:31;98725.16;;;9.14;62.73
21401;BME280;18038;50.166;18.908;2023-04-09T10:31:45;98725.41;;;9.60;61.05
21401;BME280;18038;50.166;18.908;2023-04-09T10:35:02;98719.50;;;9.81;60.71
21401;BME280;18038;50.166;18.908;2023-04-09T10:38:09;98717.78;;;9.41;60.99
21401;BME280;18038;50.166;18.908;2023-04-09T10:41:22;98716.50;;;9.12;61.41
21401;BME280;18038;50.166;18.908;2023-04-09T10:44:38;98717.50;;;9.28;60.94
21401;BME280;18038;50.166;18.908;2023-04-09T10:47:49;98711.69;;;9.72;59.94
21401;BME280;18038;50.166;18.908;2023-04-09T10:50:55;98715.34;;;10.10;56.28
21401;BME280;18038;50.166;18.908;2023-04-09T10:54:03;98716.06;;;10.04;58.23
21401;BME280;18038;50.166;18.908;2023-04-09T10:57:15;98707.84;;;10.45;57.91
21401;BME280;18038;50.166;18.908;2023-04-09T11:00:37;98704.06;;;11.15;55.07
21401;BME280;18038;50.166;18.908;2023-04-09T11:04:07;98707.81;;;11.58;53.79
21401;BME280;18038;50.166;18.908;2023-04-09T11:07:29;98702.13;;;10.94;54.12
21401;BME280;18038;50.166;18.908;2023-04-09T11:10:41;98701.59;;;11.13;53.83
21401;BME280;18038;50.166;18.908;2023-04-09T11:13:58;98704.88;;;10.40;56.49
21401;BME280;18038;50.166;18.908;2023-04-09T11:17:08;98707.59;;;11.30;55.98
21401;BME280;18038;50.166;18.908;2023-04-09T11:20:25;98702.56;;;11.80;53.10
21401;BME280;18038;50.166;18.908;2023-04-09T11:23:36;98704.59;;;11.93;53.44
21401;BME280;18038;50.166;18.908;2023-04-09T11:26:44;98703.88;;;12.20;51.27
21401;BME280;18038;50.166;18.908;2023-04-09T11:29:56;98691.94;;;12.38;50.51
21401;BME280;18038;50.166;18.908;2023-04-09T11:33:06;98697.13;;;12.61;51.38
21401;BME280;18038;50.166;18.908;2023-04-09T11:36:12;98699.69;;;11.96;51.72
21401;BME280;18038;50.166;18.908;2023-04-09T11:39:20;98696.13;;;11.89;52.38
21401;BME280;18038;50.166;18.908;2023-04-09T11:42:30;98703.16;;;12.12;52.27
21401;BME280;18038;50.166;18.908;2023-04-09T11:45:46;98699.06;;;12.52;50.25
21401;BME280;18038;50.166;18.908;2023-04-09T11:48:57;98697.13;;;12.61;49.30
21401;BME280;18038;50.166;18.908;2023-04-09T11:52:05;98696.53;;;12.87;47.98
21401;BME280;18038;50.166;18.908;2023-04-09T11:55:22;98694.34;;;12.97;48.50
21401;BME280;18038;50.166;18.908;2023-04-09T11:58:30;98702.44;;;13.32;47.26
21401;BME280;18038;50.166;18.908;2023-04-09T12:01:36;98699.41;;;13.35;47.61
21401;BME280;18038;50.166;18.908;2023-04-09T12:04:51;98698.53;;;12.42;49.02
21401;BME280;18038;50.166;18.908;2023-04-09T12:07:58;98699.00;;;12.82;48.20
21401;BME280;18038;50.166;18.908;2023-04-09T12:11:08;98703.44;;;12.53;48.13
21401;BME280;18038;50.166;18.908;2023-04-09T12:14:18;98700.00;;;12.23;49.51
21401;BME280;18038;50.166;18.908;2023-04-09T12:17:27;98696.00;;;11.97;50.78
21401;BME280;18038;50.166;18.908;2023-04-09T12:20:38;98700.34;;;11.83;50.71
21401;BME280;18038;50.166;18.908;2023-04-09T12:23:49;98704.50;;;11.56;50.84
21401;BME280;18038;50.166;18.908;2023-04-09T12:26:55;98698.69;;;11.53;51.76
21401;BME280;18038;50.166;18.908;2023-04-09T12:30:02;98689.72;;;11.46;51.63
21401;BME280;18038;50.166;18.908;2023-04-09T12:33:13;98694.88;;;11.17;52.67
21401;BME280;18038;50.166;18.908;2023-04-09T12:36:23;98698.47;;;11.25;52.52
21401;BME280;18038;50.166;18.908;2023-04-09T12:39:29;98693.53;;;10.99;53.12
21401;BME280;18038;50.166;18.908;2023-04-09T12:42:36;98693.13;;;11.10;53.44
21401;BME280;18038;50.166;18.908;2023-04-09T12:45:45;98692.78;;;10.90;53.38
21401;BME280;18038;50.166;18.908;2023-04-09T12:48:52;98688.00;;;10.39;55.15
21401;BME280;18038;50.166;18.908;2023-04-09T12:52:00;98692.47;;;10.47;55.63
21401;BME280;18038;50.166;18.908;2023-04-09T12:55:09;98684.38;;;10.78;55.16
21401;BME280;18038;50.166;18.908;2023-04-09T12:58:16;98680.09;;;10.46;55.49
21401;BME280;18038;50.166;18.908;2023-04-09T13:01:22;98680.75;;;10.94;54.53
21401;BME280;18038;50.166;18.908;2023-04-09T13:04:28;98679.19;;;11.00;55.02
21401;BME280;18038;50.166;18.908;2023-04-09T13:07:39;98675.06;;;10.74;55.06
21401;BME280;18038;50.166;18.908;2023-04-09T13:10:48;98680.78;;;10.71;53.40
21401;BME280;18038;50.166;18.908;2023-04-09T13:13:55;98684.94;;;10.88;54.14
21401;BME280;18038;50.166;18.908;2023-04-09T13:17:01;98673.88;;;10.54;52.50
21401;BME280;18038;50.166;18.908;2023-04-09T13:20:08;98674.78;;;10.46;53.06
21401;BME280;18038;50.166;18.908;2023-04-09T13:23:17;98684.75;;;10.21;53.14
21401;BME280;18038;50.166;18.908;2023-04-09T13:26:24;98672.75;;;10.17;53.59
21401;BME280;18038;50.166;18.908;2023-04-09T13:29:30;98670.66;;;10.35;53.78
21401;BME280;18038;50.166;18.908;2023-04-09T13:32:37;98672.47;;;10.43;54.89
21401;BME280;18038;50.166;18.908;2023-04-09T13:35:44;98666.13;;;10.44;53.63
21401;BME280;18038;50.166;18.908;2023-04-09T13:38:53;98666.06;;;10.52;53.53
21401;BME280;18038;50.166;18.908;2023-04-09T13:42:06;98676.69;;;10.37;53.72
21401;BME280;18038;50.166;18.908;2023-04-09T13:45:16;98676.19;;;10.02;55.10
21401;BME280;18038;50.166;18.908;2023-04-09T13:48:25;98668.31;;;10.40;54.57
21401;BME280;18038;50.166;18.908;2023-04-09T13:51:32;98669.25;;;10.47;51.79
21401;BME280;18038;50.166;18.908;2023-04-09T13:54:41;98674.09;;;10.67;51.86
21401;BME280;18038;50.166;18.908;2023-04-09T13:57:52;98671.72;;;10.72;51.41
21401;BME280;18038;50.166;18.908;2023-04-09T14:00:58;98670.50;;;10.98;52.01
21401;BME280;18038;50.166;18.908;2023-04-09T14:04:11;98667.94;;;11.04;50.62
21401;BME280;18038;50.166;18.908;2023-04-09T14:07:18;98662.44;;;10.68;50.26
21401;BME280;18038;50.166;18.908;2023-04-09T14:10:27;98662.66;;;10.96;48.91
21401;BME280;18038;50.166;18.908;2023-04-09T14:13:34;98666.97;;;10.82;49.02
21401;BME280;18038;50.166;18.908;2023-04-09T14:16:41;98659.03;;;10.51;50.56
21401;BME280;18038;50.166;18.908;2023-04-09T14:19:47;98656.50;;;10.58;50.93
21401;BME280;18038;50.166;18.908;2023-04-09T14:22:54;98657.84;;;10.30;51.43
21401;BME280;18038;50.166;18.908;2023-04-09T14:26:06;98655.34;;;10.29;51.84
21401;BME280;18038;50.166;18.908;2023-04-09T14:29:13;98653.09;;;10.18;50.07
21401;BME280;18038;50.166;18.908;2023-04-09T14:32:19;98651.53;;;10.00;46.62
21401;BME280;18038;50.166;18.908;2023-04-09T14:35:32;98648.91;;;9.92;46.98
21401;BME280;18038;50.166;18.908;2023-04-09T14:38:39;98641.66;;;10.01;47.29
21401;BME280;18038;50.166;18.908;2023-04-09T14:41:49;98653.94;;;9.87;46.95
21401;BME280;18038;50.166;18.908;2023-04-09T14:44:56;98651.78;;;9.82;46.63
21401;BME280;18038;50.166;18.908;2023-04-09T14:48:07;98649.06;;;9.59;46.74
21401;BME280;18038;50.166;18.908;2023-04-09T14:51:14;98650.09;;;9.50;48.11
21401;BME280;18038;50.166;18.908;2023-04-09T14:54:21;98648.38;;;9.66;47.66
21401;BME280;18038;50.166;18.908;2023-04-09T14:57:30;98648.84;;;9.69;50.15
21401;BME280;18038;50.166;18.908;2023-04-09T15:00:37;98649.78;;;9.45;50.68
21401;BME280;18038;50.166;18.908;2023-04-09T15:03:46;98640.63;;;9.39;51.26
21401;BME280;18038;50.166;18.908;2023-04-09T15:06:53;98645.16;;;9.31;50.61
21401;BME280;18038;50.166;18.908;2023-04-09T15:10:02;98644.78;;;9.42;52.48
21401;BME280;18038;50.166;18.908;2023-04-09T15:13:13;98645.06;;;9.55;53.23
21401;BME280;18038;50.166;18.908;2023-04-09T15:16:21;98640.06;;;9.60;53.09
21401;BME280;18038;50.166;18.908;2023-04-09T15:19:29;98633.72;;;9.22;52.67
21401;BME280;18038;50.166;18.908;2023-04-09T15:22:36;98631.53;;;9.26;51.19
21401;BME280;18038;50.166;18.908;2023-04-09T15:25:43;98636.13;;;9.40;50.67
21401;BME280;18038;50.166;18.908;2023-04-09T15:29:00;98632.53;;;9.16;51.59
21401;BME280;18038;50.166;18.908;2023-04-09T15:32:09;98633.88;;;9.20;51.33
21401;BME280;18038;50.166;18.908;2023-04-09T15:35:16;98637.25;;;8.82;52.06
21401;BME280;18038;50.166;18.908;2023-04-09T15:38:27;98640.91;;;8.97;51.37
21401;BME280;18038;50.166;18.908;2023-04-09T15:41:34;98639.59;;;9.01;51.22
21401;BME280;18038;50.166;18.908;2023-04-09T15:44:43;98637.91;;;9.00;51.94
21401;BME280;18038;50.166;18.908;2023-04-09T15:47:49;98640.59;;;8.67;55.37
21401;BME280;18038;50.166;18.908;2023-04-09T15:50:57;98645.59;;;8.46;57.08
21401;BME280;18038;50.166;18.908;2023-04-09T15:54:03;98648.25;;;8.46;57.82
21401;BME280;18038;50.166;18.908;2023-04-09T15:57:10;98647.91;;;8.32;56.32
21401;BME280;18038;50.166;18.908;2023-04-09T16:00:20;98650.91;;;8.54;56.48
21401;BME280;18038;50.166;18.908;2023-04-09T16:03:27;98647.75;;;8.67;55.71
21401;BME280;18038;50.166;18.908;2023-04-09T16:06:38;98655.88;;;8.82;55.12
21401;BME280;18038;50.166;18.908;2023-04-09T16:09:45;98662.88;;;8.50;55.04
21401;BME280;18038;50.166;18.908;2023-04-09T16:12:52;98662.53;;;8.37;54.10
21401;BME280;18038;50.166;18.908;2023-04-09T16:16:02;98664.38;;;8.20;55.16
21401;BME280;18038;50.166;18.908;2023-04-09T16:19:09;98660.81;;;7.95;55.19
21401;BME280;18038;50.166;18.908;2023-04-09T16:22:16;98659.53;;;8.15;55.45
21401;BME280;18038;50.166;18.908;2023-04-09T16:25:22;98662.53;;;8.20;55.99
21401;BME280;18038;50.166;18.908;2023-04-09T16:28:30;98666.69;;;8.23;56.34
21401;BME280;18038;50.166;18.908;2023-04-09T16:31:40;98661.84;;;8.10;57.53
21401;BME280;18038;50.166;18.908;2023-04-09T16:34:51;98665.50;;;8.09;57.79
21401;BME280;18038;50.166;18.908;2023-04-09T16:37:57;98654.84;;;7.93;58.34
21401;BME280;18038;50.166;18.908;2023-04-09T16:41:05;98663.31;;;7.96;58.37